createdAt,value
2022-10-22T00:02:08.900Z,52.66
2022-10-22T00:04:36.095Z,51.40
2022-10-22T00:07:04.759Z,51.42
2022-10-22T00:09:31.899Z,51.28
2022-10-22T00:11:59.059Z,52.14
2022-10-22T00:14:26.119Z,51.75
2022-10-22T00:16:53.269Z,52.20
2022-10-22T00:19:20.331Z,52.67
2022-10-22T00:21:47.398Z,52.48
2022-10-22T00:24:16.101Z,52.96
2022-10-22T00:26:43.141Z,52.32
2022-10-22T00:29:10.318Z,52.71
2022-10-22T00:31:37.478Z,52.82
2022-10-22T00:34:04.620Z,53.03
2022-10-22T00:36:31.699Z,52.84
2022-10-22T00:38:58.799Z,52.72
2022-10-22T00:41:27.399Z,52.40
2022-10-22T00:43:57.438Z,52.24
2022-10-22T00:46:24.632Z,52.41
2022-10-22T00:48:53.032Z,52.41
2022-10-22T00:51:24.643Z,52.35
2022-10-22T00:53:57.233Z,52.39
2022-10-22T00:56:25.096Z,52.22
2022-10-22T00:58:59.727Z,52.27
2022-10-22T01:01:31.356Z,52.83
2022-10-22T01:03:59.434Z,53.21
2022-10-22T01:06:29.572Z,52.55
2022-10-22T01:09:10.033Z,53.48
2022-10-22T01:11:52.574Z,53.49
2022-10-22T01:14:33.499Z,53.21
2022-10-22T01:17:08.049Z,52.63
2022-10-22T01:19:57.956Z,53.43
2022-10-22T01:22:32.604Z,53.06
2022-10-22T01:25:08.025Z,53.19
2022-10-22T01:28:01.689Z,53.27
2022-10-22T01:30:30.406Z,53.18
2022-10-22T01:33:03.378Z,52.96
2022-10-22T01:35:35.970Z,52.62
2022-10-22T01:38:09.092Z,52.45
2022-10-22T01:40:37.547Z,52.17
2022-10-22T01:43:07.195Z,52.23
2022-10-22T01:45:40.566Z,51.80
2022-10-22T01:48:26.206Z,52.62
2022-10-22T01:51:19.305Z,58.31
2022-10-22T01:54:00.147Z,57.73
2022-10-22T01:56:56.987Z,57.06
2022-10-22T01:59:40.027Z,56.00
2022-10-22T02:02:23.725Z,56.03
2022-10-22T02:04:58.869Z,54.41
2022-10-22T02:07:31.807Z,55.66
2022-10-22T02:10:01.226Z,54.26
2022-10-22T02:12:32.409Z,54.63
2022-10-22T02:15:03.050Z,54.33
2022-10-22T02:17:37.486Z,54.01
2022-10-22T02:20:12.685Z,54.38
2022-10-22T02:22:40.215Z,53.99
2022-10-22T02:25:09.509Z,53.68
2022-10-22T02:27:44.007Z,53.60
2022-10-22T02:32:50.367Z,53.83
2022-10-22T02:35:22.290Z,54.22
2022-10-22T02:37:52.267Z,53.55
2022-10-22T02:40:21.227Z,52.83
2022-10-22T02:42:50.565Z,52.89
2022-10-22T02:45:19.948Z,53.58
2022-10-22T02:47:49.089Z,53.31
2022-10-22T02:50:17.077Z,53.01
2022-10-22T02:52:44.249Z,53.60
2022-10-22T02:55:11.366Z,53.55
2022-10-22T02:57:38.624Z,53.53
2022-10-22T03:00:07.899Z,53.75
2022-10-22T03:02:34.926Z,53.79
2022-10-22T03:05:04.153Z,53.82
2022-10-22T03:07:31.368Z,53.86
2022-10-22T03:09:58.507Z,53.92
2022-10-22T03:12:25.708Z,53.59
2022-10-22T03:14:52.747Z,53.84
2022-10-22T03:17:19.825Z,53.63
2022-10-22T03:19:46.909Z,54.04
2022-10-22T03:22:20.426Z,54.20
2022-10-22T03:24:53.329Z,53.67
2022-10-22T03:27:22.827Z,53.54
2022-10-22T03:29:52.707Z,54.00
2022-10-22T03:32:19.908Z,53.93
2022-10-22T03:34:47.152Z,53.58
2022-10-22T03:37:16.688Z,53.73
2022-10-22T03:39:44.330Z,53.67
2022-10-22T03:42:11.690Z,53.77
2022-10-22T03:44:40.567Z,53.77
2022-10-22T03:47:08.591Z,54.07
2022-10-22T03:49:36.266Z,53.64
2022-10-22T03:52:07.747Z,54.01
2022-10-22T03:57:10.667Z,53.78
2022-10-22T03:59:39.646Z,54.02
2022-10-22T04:02:06.727Z,53.83
2022-10-22T04:04:34.329Z,53.51
2022-10-22T04:07:01.365Z,53.80
2022-10-22T04:09:31.368Z,53.44
2022-10-22T04:12:00.266Z,53.50
2022-10-22T04:14:27.307Z,53.73
2022-10-22T04:16:54.747Z,53.39
2022-10-22T04:19:21.888Z,53.69
2022-10-22T04:21:48.911Z,53.32
2022-10-22T04:24:16.427Z,53.98
2022-10-22T04:26:44.048Z,53.78
2022-10-22T04:29:15.997Z,54.03
2022-10-22T04:31:43.768Z,53.43
2022-10-22T04:34:10.910Z,53.15
2022-10-22T04:36:37.940Z,53.45
2022-10-22T04:39:05.468Z,53.40
2022-10-22T04:41:34.349Z,53.36
2022-10-22T04:44:01.825Z,53.32
2022-10-22T04:46:32.985Z,52.95
2022-10-22T04:49:00.273Z,53.21
2022-10-22T04:51:27.806Z,53.27
2022-10-22T04:53:55.349Z,53.08
2022-10-22T04:56:25.688Z,52.79
2022-10-22T04:58:55.166Z,52.90
2022-10-22T05:01:24.490Z,52.93
2022-10-22T05:03:55.246Z,52.40
2022-10-22T05:06:23.749Z,52.50
2022-10-22T05:08:55.340Z,52.62
2022-10-22T05:11:25.227Z,52.98
2022-10-22T05:13:52.448Z,52.68
2022-10-22T05:16:19.546Z,52.75
2022-10-22T05:18:46.587Z,52.69
2022-10-22T05:21:17.545Z,51.76
2022-10-22T05:23:46.286Z,51.09
2022-10-22T05:26:16.190Z,51.30
2022-10-22T05:31:12.928Z,51.90
2022-10-22T05:33:40.748Z,52.25
2022-10-22T05:36:10.910Z,51.95
2022-10-22T05:38:39.328Z,52.57
2022-10-22T05:41:09.786Z,52.56
2022-10-22T05:43:37.568Z,52.54
2022-10-22T05:46:06.746Z,52.69
2022-10-22T05:48:34.392Z,52.65
2022-10-22T05:51:02.847Z,52.59
2022-10-22T05:53:30.188Z,52.33
2022-10-22T05:56:00.426Z,52.62
2022-10-22T05:58:27.488Z,52.54
2022-10-22T06:00:54.608Z,52.35
2022-10-22T06:03:21.727Z,52.45
2022-10-22T06:05:48.869Z,52.74
2022-10-22T06:08:18.930Z,52.26
2022-10-22T06:10:46.466Z,52.57
2022-10-22T06:13:15.049Z,52.73
2022-10-22T06:15:42.128Z,52.42
2022-10-22T06:18:09.205Z,52.68
2022-10-22T06:20:36.309Z,52.87
2022-10-22T06:23:03.387Z,53.20
2022-10-22T06:25:30.516Z,53.22
2022-10-22T06:27:57.645Z,52.81
2022-10-22T06:30:26.188Z,53.26
2022-10-22T06:32:53.167Z,53.11
2022-10-22T06:35:20.186Z,52.91
2022-10-22T06:37:47.208Z,53.05
2022-10-22T06:40:14.535Z,52.84
2022-10-22T06:42:41.778Z,52.73
2022-10-22T06:45:10.727Z,52.94
2022-10-22T06:47:39.630Z,52.19
2022-10-22T06:50:08.369Z,53.00
2022-10-22T06:52:35.385Z,52.65
2022-10-22T06:55:02.456Z,52.29
2022-10-22T06:57:30.802Z,52.98
2022-10-22T06:59:57.867Z,53.12
2022-10-22T07:02:24.967Z,52.88
2022-10-22T07:04:53.447Z,53.04
2022-10-22T07:07:20.506Z,53.17
2022-10-22T07:09:47.526Z,53.17
2022-10-22T07:12:15.230Z,53.25
2022-10-22T07:14:42.375Z,53.58
2022-10-22T07:17:09.865Z,52.90
2022-10-22T07:19:37.287Z,51.57
2022-10-22T07:22:05.827Z,50.44
2022-10-22T07:24:33.007Z,49.77
2022-10-22T07:27:00.110Z,49.93
2022-10-22T07:29:27.326Z,50.15
2022-10-22T07:31:54.607Z,49.10
2022-10-22T07:34:21.722Z,48.66
2022-10-22T07:36:48.826Z,48.38
2022-10-22T07:39:17.346Z,48.86
2022-10-22T07:41:44.415Z,47.61
2022-10-22T07:44:11.769Z,49.45
2022-10-22T07:46:38.827Z,49.28
2022-10-22T07:49:05.890Z,48.21
2022-10-22T07:51:32.908Z,47.81
2022-10-22T07:53:59.948Z,46.39
2022-10-22T07:56:28.507Z,45.23
2022-10-22T07:58:55.555Z,44.63
2022-10-22T08:01:22.712Z,44.72
2022-10-22T08:03:49.812Z,44.40
2022-10-22T08:06:17.468Z,44.29
2022-10-22T08:08:45.533Z,45.02
2022-10-22T08:11:13.088Z,44.29
2022-10-22T08:13:45.629Z,45.25
2022-10-22T08:16:13.907Z,44.73
2022-10-22T08:18:41.007Z,44.70
2022-10-22T08:21:08.047Z,45.16
2022-10-22T08:23:35.167Z,44.70
2022-10-22T08:26:02.208Z,43.51
2022-10-22T08:28:29.387Z,44.05
2022-10-22T08:30:58.047Z,44.67
2022-10-22T08:33:25.116Z,43.14
2022-10-22T08:35:52.708Z,42.84
2022-10-22T08:38:20.506Z,42.93
2022-10-22T08:40:51.973Z,42.60
2022-10-22T08:43:46.489Z,41.56
2022-10-22T08:46:30.847Z,42.47
2022-10-22T08:49:02.050Z,42.40
2022-10-22T08:51:34.434Z,41.72
2022-10-22T08:54:22.727Z,42.51
2022-10-22T08:57:02.651Z,42.27
2022-10-22T08:59:39.650Z,41.99
2022-10-22T09:02:30.449Z,42.26
2022-10-22T09:05:13.567Z,41.13
2022-10-22T09:07:43.614Z,41.11
2022-10-22T09:10:13.489Z,41.20
2022-10-22T09:12:41.067Z,41.45
2022-10-22T09:15:14.188Z,40.53
2022-10-22T09:17:58.329Z,38.15
2022-10-22T09:20:32.408Z,40.69
2022-10-22T09:23:17.431Z,40.58
2022-10-22T09:25:45.769Z,38.57
2022-10-22T09:28:13.213Z,40.70
2022-10-22T09:30:40.408Z,39.54
2022-10-22T09:33:15.428Z,38.40
2022-10-22T09:35:47.988Z,38.48
2022-10-22T09:38:18.990Z,39.30
2022-10-22T09:40:49.309Z,38.77
2022-10-22T09:43:17.489Z,37.82
2022-10-22T09:45:45.807Z,38.26
2022-10-22T09:48:21.887Z,39.14
2022-10-22T09:50:55.110Z,39.90
2022-10-22T09:53:26.950Z,37.17
2022-10-22T09:55:57.195Z,38.63
2022-10-22T09:58:25.011Z,38.03
2022-10-22T10:00:56.188Z,39.27
2022-10-22T10:03:27.803Z,37.58
2022-10-22T10:06:01.483Z,37.25
2022-10-22T10:08:32.144Z,38.00
2022-10-22T10:11:07.749Z,37.63
2022-10-22T10:13:50.708Z,38.38
2022-10-22T10:16:35.809Z,36.84
2022-10-22T10:19:28.429Z,39.00
2022-10-22T10:22:10.449Z,37.59
2022-10-22T10:24:56.109Z,37.09
2022-10-22T10:27:34.168Z,36.66
2022-10-22T10:30:06.153Z,36.38
2022-10-22T10:32:56.308Z,37.27
2022-10-22T10:35:29.488Z,37.89
2022-10-22T10:38:14.349Z,37.91
2022-10-22T10:40:48.853Z,39.13
2022-10-22T10:43:24.531Z,37.52
2022-10-22T10:46:09.543Z,36.56
2022-10-22T10:48:49.369Z,37.73
2022-10-22T10:51:35.768Z,38.13
2022-10-22T10:54:27.516Z,37.06
2022-10-22T10:57:00.608Z,37.21
2022-10-22T10:59:42.349Z,39.35
2022-10-22T11:02:45.322Z,40.25
2022-10-22T11:05:30.790Z,39.58
2022-10-22T11:08:04.669Z,38.69
2022-10-22T11:10:39.288Z,40.64
2022-10-22T11:13:18.188Z,40.38
2022-10-22T11:15:52.788Z,36.97
2022-10-22T11:18:25.152Z,42.20
2022-10-22T11:21:19.010Z,41.00
2022-10-22T11:23:55.708Z,39.82
2022-10-22T11:26:36.268Z,43.82
2022-10-22T11:29:11.651Z,44.18
2022-10-22T11:31:41.108Z,41.27
2022-10-22T11:34:34.351Z,39.77
2022-10-22T11:37:04.527Z,40.04
2022-10-22T11:39:41.472Z,38.58
2022-10-22T11:42:12.109Z,38.52
2022-10-22T11:44:59.072Z,36.87
2022-10-22T11:47:28.468Z,34.22
2022-10-22T11:50:02.270Z,36.75
2022-10-22T11:52:41.495Z,37.14
2022-10-22T11:55:42.348Z,37.02
2022-10-22T11:58:31.407Z,37.22
2022-10-22T12:01:17.966Z,36.94
2022-10-22T12:03:49.726Z,35.35
2022-10-22T12:06:23.827Z,35.65
2022-10-22T12:08:59.609Z,36.74
2022-10-22T12:11:36.152Z,36.52
2022-10-22T12:14:17.427Z,36.40
2022-10-22T12:17:02.493Z,36.82
2022-10-22T12:19:32.752Z,36.62
2022-10-22T12:22:11.651Z,36.79
2022-10-22T12:24:41.787Z,36.61
2022-10-22T12:27:22.456Z,36.39
2022-10-22T12:29:55.647Z,36.06
2022-10-22T12:32:23.867Z,36.45
2022-10-22T12:34:52.991Z,36.04
2022-10-22T12:37:20.285Z,35.59
2022-10-22T12:39:47.706Z,36.17
2022-10-22T12:42:18.181Z,36.46
2022-10-22T12:44:45.387Z,35.96
2022-10-22T12:47:17.488Z,36.08
2022-10-22T12:49:48.149Z,36.22
2022-10-22T12:52:20.607Z,36.55
2022-10-22T12:54:50.176Z,36.31
2022-10-22T12:57:21.600Z,36.42
2022-10-22T12:59:52.097Z,36.79
2022-10-22T13:02:22.908Z,37.08
2022-10-22T13:05:24.256Z,35.24
2022-10-22T13:07:53.567Z,36.86
2022-10-22T13:10:25.548Z,36.83
2022-10-22T13:12:56.148Z,37.07
2022-10-22T13:15:35.887Z,36.56
2022-10-22T13:18:16.450Z,36.85
2022-10-22T13:20:55.610Z,37.19
2022-10-22T13:23:24.706Z,36.90
2022-10-22T13:26:00.318Z,37.61
2022-10-22T13:28:32.246Z,37.07
2022-10-22T13:31:01.547Z,37.75
2022-10-22T13:33:34.250Z,37.96
2022-10-22T13:36:02.467Z,37.45
2022-10-22T13:38:30.087Z,37.51
2022-10-22T13:40:57.807Z,37.76
2022-10-22T13:43:24.992Z,37.88
2022-10-22T13:45:58.227Z,37.33
2022-10-22T13:48:28.146Z,36.90
2022-10-22T13:50:55.306Z,37.64
2022-10-22T13:53:26.188Z,37.38
2022-10-22T13:55:54.039Z,37.70
2022-10-22T13:58:23.329Z,37.86
2022-10-22T14:00:55.425Z,37.55
2022-10-22T14:03:28.248Z,37.21
2022-10-22T14:05:56.187Z,37.64
2022-10-22T14:08:27.026Z,37.22
2022-10-22T14:10:54.766Z,37.03
2022-10-22T14:13:21.984Z,36.87
2022-10-22T14:15:52.193Z,36.99
2022-10-22T14:18:24.338Z,37.25
2022-10-22T14:20:55.046Z,36.95
2022-10-22T14:23:25.306Z,36.30
2022-10-22T14:25:52.686Z,36.76
2022-10-22T14:28:20.387Z,36.63
2022-10-22T14:30:47.628Z,36.89
2022-10-22T14:33:18.670Z,32.50
2022-10-22T14:35:47.912Z,35.74
2022-10-22T14:38:15.026Z,34.09
2022-10-22T14:40:44.135Z,35.38
2022-10-22T14:43:13.029Z,35.69
2022-10-22T14:45:40.088Z,36.74
2022-10-22T14:48:07.259Z,34.66
2022-10-22T14:50:34.666Z,34.28
2022-10-22T14:53:03.300Z,35.15
2022-10-22T14:55:30.386Z,34.54
2022-10-22T14:57:57.806Z,35.31
2022-10-22T15:00:24.952Z,34.76
2022-10-22T15:02:52.347Z,35.54
2022-10-22T15:05:19.510Z,37.75
2022-10-22T15:07:46.637Z,37.38
2022-10-22T15:10:15.147Z,37.21
2022-10-22T15:12:42.167Z,38.83
2022-10-22T15:15:10.152Z,37.30
2022-10-22T15:17:37.513Z,37.44
2022-10-22T15:20:05.891Z,37.00
2022-10-22T15:22:33.630Z,38.08
2022-10-22T15:25:01.014Z,36.79
2022-10-22T15:27:29.568Z,35.85
2022-10-22T15:29:56.726Z,35.43
2022-10-22T15:32:23.806Z,35.57
2022-10-22T15:34:53.597Z,35.81
2022-10-22T15:37:21.848Z,36.62
2022-10-22T15:39:49.128Z,36.66
2022-10-22T15:42:16.688Z,37.15
2022-10-22T15:44:45.649Z,37.15
2022-10-22T15:47:12.766Z,37.14
2022-10-22T15:49:40.671Z,38.11
2022-10-22T15:52:08.993Z,38.40
2022-10-22T15:54:36.593Z,37.90
2022-10-22T15:57:03.960Z,37.86
2022-10-22T15:59:31.252Z,37.65
2022-10-22T16:01:59.788Z,37.98
2022-10-22T16:04:26.872Z,37.99
2022-10-22T16:06:54.269Z,38.42
2022-10-22T16:09:23.930Z,39.00
2022-10-22T16:14:22.590Z,40.71
2022-10-22T16:16:52.420Z,41.08
2022-10-22T16:19:23.109Z,41.33
2022-10-22T16:21:51.514Z,41.65
2022-10-22T16:24:19.862Z,42.49
2022-10-22T16:26:47.830Z,42.88
2022-10-22T16:29:15.195Z,43.27
2022-10-22T16:31:42.367Z,43.32
2022-10-22T16:34:09.807Z,43.53
2022-10-22T16:36:39.214Z,43.92
2022-10-22T16:39:06.826Z,43.75
2022-10-22T16:41:34.470Z,43.80
2022-10-22T16:44:03.787Z,44.19
2022-10-22T16:46:31.765Z,44.05
2022-10-22T16:48:58.901Z,44.56
2022-10-22T16:51:28.381Z,44.43
2022-10-22T16:53:58.509Z,44.66
2022-10-22T16:56:26.288Z,44.84
2022-10-22T16:58:56.262Z,44.78
2022-10-22T17:01:25.890Z,44.82
2022-10-22T17:03:54.302Z,44.45
2022-10-22T17:06:23.705Z,44.30
2022-10-22T17:08:51.295Z,44.43
2022-10-22T17:11:22.242Z,44.47
2022-10-22T17:13:51.803Z,44.25
2022-10-22T17:16:20.883Z,44.56
2022-10-22T17:18:48.707Z,44.46
2022-10-22T17:21:17.224Z,45.01
2022-10-22T17:23:45.302Z,45.01
2022-10-22T17:26:16.046Z,44.79
2022-10-22T17:28:44.760Z,44.91
2022-10-22T17:31:17.804Z,44.91
2022-10-22T17:33:45.482Z,45.44
2022-10-22T17:36:13.820Z,45.97
2022-10-22T17:38:43.063Z,45.74
2022-10-22T17:41:15.241Z,45.69
2022-10-22T17:43:42.394Z,45.99
2022-10-22T17:46:16.242Z,46.45
2022-10-22T17:48:43.345Z,46.36
2022-10-22T17:51:12.681Z,46.55
2022-10-22T17:53:40.963Z,46.64
2022-10-22T17:56:09.681Z,46.22
2022-10-22T17:58:37.549Z,45.07
2022-10-22T18:01:06.301Z,45.25
2022-10-22T18:03:35.323Z,45.94
2022-10-22T18:06:07.836Z,46.40
2022-10-22T18:08:35.052Z,46.00
2022-10-22T18:11:06.762Z,45.90
2022-10-22T18:13:33.983Z,45.93
2022-10-22T18:16:01.083Z,46.15
2022-10-22T18:18:29.041Z,46.23
2022-10-22T18:20:57.943Z,46.31
2022-10-22T18:23:25.104Z,45.67
2022-10-22T18:25:52.485Z,46.47
2022-10-22T18:28:20.203Z,46.59
2022-10-22T18:30:49.285Z,46.18
2022-10-22T18:33:18.624Z,46.17
2022-10-22T18:35:46.863Z,46.26
2022-10-22T18:38:15.662Z,46.29
2022-10-22T18:40:45.981Z,46.19
2022-10-22T18:43:13.284Z,46.06
2022-10-22T18:45:42.884Z,46.06
2022-10-22T18:48:10.324Z,45.95
2022-10-22T18:50:37.383Z,46.08
2022-10-22T18:53:04.601Z,46.18
2022-10-22T18:55:34.381Z,45.94
2022-10-22T18:58:01.725Z,45.89
2022-10-22T19:00:28.822Z,46.21
2022-10-22T19:02:55.924Z,46.06
2022-10-22T19:05:23.083Z,46.13
2022-10-22T19:07:53.541Z,46.06
2022-10-22T19:10:21.023Z,46.22
2022-10-22T19:12:49.503Z,46.17
2022-10-22T19:15:16.807Z,46.22
2022-10-22T19:17:44.199Z,46.26
2022-10-22T19:20:11.583Z,46.20
2022-10-22T19:22:38.743Z,46.17
2022-10-22T19:25:09.702Z,46.09
2022-10-22T19:27:39.396Z,46.25
2022-10-22T19:30:09.826Z,46.10
2022-10-22T19:32:36.982Z,45.75
2022-10-22T19:35:05.022Z,45.91
2022-10-22T19:37:33.142Z,45.86
2022-10-22T19:40:00.380Z,45.89
2022-10-22T19:42:27.565Z,46.20
2022-10-22T19:44:54.701Z,45.80
2022-10-22T19:47:23.222Z,46.06
2022-10-22T19:49:50.323Z,46.05
2022-10-22T19:52:17.403Z,45.62
2022-10-22T19:54:44.522Z,45.59
2022-10-22T19:57:15.584Z,46.04
2022-10-22T19:59:42.904Z,46.23
2022-10-22T20:02:15.363Z,46.05
2022-10-22T20:04:49.144Z,45.99
2022-10-22T20:07:17.374Z,45.94
2022-10-22T20:09:44.584Z,45.88
2022-10-22T20:12:11.702Z,45.70
2022-10-22T20:14:40.204Z,46.01
2022-10-22T20:17:07.341Z,46.49
2022-10-22T20:19:34.461Z,46.53
2022-10-22T20:22:03.029Z,46.29
2022-10-22T20:24:30.543Z,46.31
2022-10-22T20:26:57.964Z,46.20
2022-10-22T20:29:25.065Z,46.60
2022-10-22T20:31:52.143Z,46.16
2022-10-22T20:34:19.201Z,46.31
2022-10-22T20:36:46.345Z,46.39
2022-10-22T20:39:15.821Z,46.42
2022-10-22T20:41:42.961Z,46.15
2022-10-22T20:44:15.659Z,46.01
2022-10-22T20:46:43.158Z,46.02
2022-10-22T20:49:13.047Z,46.26
2022-10-22T20:51:40.482Z,46.34
2022-10-22T20:54:08.823Z,46.51
2022-10-22T20:56:39.909Z,46.49
2022-10-22T20:59:09.304Z,46.81
2022-10-22T21:01:39.224Z,46.61
2022-10-22T21:04:07.194Z,46.93
2022-10-22T21:06:35.786Z,46.87
2022-10-22T21:09:03.167Z,46.66
2022-10-22T21:11:30.307Z,46.60
2022-10-22T21:13:59.016Z,46.67
2022-10-22T21:16:37.945Z,46.68
2022-10-22T21:19:09.607Z,47.22
2022-10-22T21:21:36.905Z,47.05
2022-10-22T21:24:04.703Z,47.34
2022-10-22T21:26:31.983Z,47.25
2022-10-22T21:29:00.643Z,47.49
2022-10-22T21:31:27.701Z,47.54
2022-10-22T21:33:55.082Z,47.40
2022-10-22T21:36:24.067Z,47.07
2022-10-22T21:38:52.844Z,46.89
2022-10-22T21:41:22.096Z,46.07
2022-10-22T21:43:49.765Z,45.58
2022-10-22T21:46:20.282Z,45.10
2022-10-22T21:48:48.226Z,44.82
2022-10-22T21:51:17.886Z,44.21
2022-10-22T21:53:45.653Z,43.87
2022-10-22T21:56:15.184Z,43.90
2022-10-22T21:58:43.225Z,44.31
2022-10-22T22:01:10.993Z,44.06
2022-10-22T22:03:41.951Z,43.82
2022-10-22T22:06:09.143Z,44.14
2022-10-22T22:08:36.439Z,46.32
2022-10-22T22:11:05.993Z,44.22
2022-10-22T22:13:34.423Z,44.50
2022-10-22T22:16:03.503Z,44.67
2022-10-22T22:18:32.222Z,44.26
2022-10-22T22:21:03.684Z,43.86
2022-10-22T22:23:30.823Z,44.36
2022-10-22T22:25:59.345Z,44.69
2022-10-22T22:28:26.745Z,44.72
2022-10-22T22:30:53.842Z,45.79
2022-10-22T22:33:20.882Z,45.01
2022-10-22T22:35:47.949Z,44.93
2022-10-22T22:38:16.568Z,45.71
2022-10-22T22:40:44.283Z,45.83
2022-10-22T22:43:12.404Z,45.14
2022-10-22T22:45:39.483Z,45.85
2022-10-22T22:48:07.421Z,46.04
2022-10-22T22:50:35.697Z,46.22
2022-10-22T22:53:02.869Z,46.88
2022-10-22T22:55:31.426Z,46.55
2022-10-22T22:57:58.824Z,46.42
2022-10-22T23:00:26.070Z,46.38
2022-10-22T23:02:54.926Z,46.57
2022-10-22T23:05:21.923Z,47.02
2022-10-22T23:07:48.985Z,47.28
2022-10-22T23:10:16.414Z,46.74
2022-10-22T23:12:45.086Z,46.75
2022-10-22T23:15:12.583Z,47.17
2022-10-22T23:17:39.683Z,47.12
2022-10-22T23:20:08.063Z,46.90
2022-10-22T23:22:35.162Z,47.41
2022-10-22T23:25:02.225Z,47.06
2022-10-22T23:27:29.440Z,47.29
2022-10-22T23:29:58.042Z,47.27
2022-10-22T23:32:25.164Z,47.27
2022-10-22T23:34:52.222Z,47.63
2022-10-22T23:37:19.342Z,47.13
2022-10-22T23:39:46.385Z,47.12
2022-10-22T23:42:13.501Z,46.93
2022-10-22T23:44:40.700Z,46.99
2022-10-22T23:47:09.205Z,46.98
2022-10-22T23:49:36.302Z,47.46
2022-10-22T23:52:03.421Z,47.32
2022-10-22T23:54:30.582Z,47.35
2022-10-22T23:56:57.642Z,47.47
2022-10-22T23:59:29.736Z,46.90
